Time;durP1;ratioP1;P1;durP2;ratioP2;P2;SDS_P1;SDS_P2;PMS_P1;PMS_P2;Temp;Humidity;BMP_temperature;BMP_pressure;BME280_temperature;BME280_humidity;BME280_pressure;Samples;Min_cycle;Max_cycle;Signal;HPM_P1;HPM_P2
2021/12/24 00:00:39;;;;;;;4.38;3.40;;;;;;;5.30;78.47;99128.19;4957581;28;20291;-82
2021/12/24 00:03:04;;;;;;;3.97;2.95;;;;;;;5.62;78.07;99118.75;4955241;28;20238;-84
2021/12/24 00:05:31;;;;;;;3.50;3.20;;;;;;;5.98;77.02;99116.03;4941696;28;20283;-83
2021/12/24 00:07:57;;;;;;;7.43;4.50;;;;;;;6.27;75.85;99118.03;4960507;28;20480;-83
2021/12/24 00:10:23;;;;;;;5.00;3.60;;;;;;;6.48;75.74;99124.69;4954446;28;20787;-84
2021/12/24 00:12:57;;;;;;;5.27;4.77;;;;;;;6.62;75.16;99126.53;4964094;28;20515;-84
2021/12/24 00:17:48;;;;;;;8.20;4.13;;;;;;;6.80;74.83;99124.66;4965884;28;20199;-83
2021/12/24 00:23:26;;;;;;;4.35;3.80;;;;;;;6.85;74.53;99075.66;4963603;28;20195;-83
2021/12/24 00:36:42;;;;;;;3.13;2.83;;;;;;;7.32;72.98;99054.63;4964674;28;20215;-83
2021/12/24 00:39:07;;;;;;;5.67;2.90;;;;;;;7.40;72.73;99055.91;4963887;28;20208;-84
2021/12/24 00:41:33;;;;;;;3.47;2.90;;;;;;;7.48;72.39;99059.78;4966257;28;20259;-84
2021/12/24 00:44:01;;;;;;;3.60;3.07;;;;;;;7.54;72.39;99054.19;4964091;28;20203;-84
2021/12/24 00:46:26;;;;;;;3.13;2.83;;;;;;;7.62;72.05;99058.94;4955331;28;20689;-83
2021/12/24 00:48:55;;;;;;;4.10;3.25;;;;;;;7.67;72.12;99053.44;4962176;28;20558;-84
2021/12/24 00:51:30;;;;;;;5.68;3.20;;;;;;;7.70;71.84;99055.88;4965857;28;20216;-84
2021/12/24 00:56:40;;;;;;;5.03;3.08;;;;;;;7.82;71.48;99034.19;4966468;28;20212;-84
2021/12/24 00:59:05;;;;;;;4.40;3.07;;;;;;;7.86;71.25;99040.09;4969424;28;20204;-84
2021/12/24 01:01:31;;;;;;;5.30;3.23;;;;;;;7.93;71.16;99049.22;4968868;28;20496;-83
2021/12/24 01:03:56;;;;;;;4.20;2.67;;;;;;;7.94;70.96;99045.69;4972177;28;20210;-83
2021/12/24 01:06:22;;;;;;;3.43;3.07;;;;;;;7.94;71.24;99043.91;4968986;28;20303;-83
2021/12/24 01:08:47;;;;;;;2.97;2.77;;;;;;;7.95;70.89;99039.53;4952546;28;20213;-82
2021/12/24 01:11:13;;;;;;;3.17;2.60;;;;;;;7.95;71.22;99031.69;4970671;28;20204;-83
2021/12/24 01:13:40;;;;;;;4.87;3.07;;;;;;;7.95;71.13;99035.13;4959875;28;20215;-82
2021/12/24 01:16:16;;;;;;;3.28;2.40;;;;;;;7.96;71.03;99038.56;4962894;28;20208;-84
2021/12/24 01:19:03;;;;;;;3.28;2.80;;;;;;;7.97;71.19;99024.59;4961932;28;20569;-83
2021/12/24 01:23:59;;;;;;;3.87;2.90;;;;;;;7.92;71.20;99032.72;4945848;28;20290;-84
2021/12/24 01:26:46;;;;;;;3.10;2.78;;;;;;;7.91;71.33;99038.00;4968038;28;20208;-83
2021/12/24 01:42:47;;;;;;;3.30;3.00;;;;;;;8.16;70.88;99021.66;4953705;28;20215;-83
2021/12/24 01:45:25;;;;;;;4.55;3.50;;;;;;;8.24;70.68;99021.19;4966347;28;20204;-84
2021/12/24 01:47:53;;;;;;;3.67;3.03;;;;;;;8.29;70.60;99021.69;4940903;28;20233;-83
2021/12/24 01:50:20;;;;;;;4.93;3.03;;;;;;;8.33;70.31;99008.31;4960412;28;20215;-82
2021/12/24 01:52:48;;;;;;;4.10;2.90;;;;;;;8.39;70.12;99014.97;4931348;28;20243;-82
2021/12/24 01:55:14;;;;;;;3.58;2.67;;;;;;;8.42;70.04;99020.00;4941119;28;20231;-83
2021/12/24 01:57:41;;;;;;;4.13;3.33;;;;;;;8.42;70.02;99017.41;4940346;28;20220;-84
2021/12/24 02:00:10;;;;;;;4.28;2.45;;;;;;;8.43;70.14;99018.25;4960625;28;20853;-83
2021/12/24 02:02:39;;;;;;;5.00;2.80;;;;;;;8.41;70.23;99008.72;4961162;28;20219;-86
2021/12/24 02:05:06;;;;;;;3.35;2.50;;;;;;;8.45;70.10;99011.94;4947027;28;20212;-83
2021/12/24 02:07:31;;;;;;;4.60;2.53;;;;;;;8.49;69.99;98999.53;4944725;28;20282;-84
2021/12/24 02:09:57;;;;;;;3.40;3.10;;;;;;;8.49;69.93;99000.38;4947789;28;20197;-83
2021/12/24 02:12:24;;;;;;;4.63;2.87;;;;;;;8.51;70.06;99005.50;4944674;28;20279;-83
2021/12/24 02:14:53;;;;;;;4.53;2.85;;;;;;;8.48;70.12;98990.84;4968465;28;20486;-83
2021/12/24 02:30:46;;;;;;;3.80;2.88;;;;;;;8.66;69.72;98987.94;4951927;28;20212;-83
2021/12/24 02:33:12;;;;;;;3.27;2.60;;;;;;;8.61;69.70;98999.59;4959098;28;20585;-84
2021/12/24 02:35:37;;;;;;;2.57;2.37;;;;;;;8.62;69.69;98995.19;4946525;28;20278;-83
2021/12/24 02:38:04;;;;;;;3.47;2.33;;;;;;;8.61;69.68;98993.47;4949359;28;20349;-84
2021/12/24 02:40:31;;;;;;;3.08;2.45;;;;;;;8.60;69.77;98978.72;4966977;28;20210;-83
2021/12/24 02:42:57;;;;;;;3.17;2.22;;;;;;;8.63;69.60;98970.66;4961540;28;20204;-84
2021/12/24 02:45:25;;;;;;;3.10;2.40;;;;;;;8.66;69.60;98964.38;4966552;28;20216;-84
2021/12/24 02:55:30;;;;;;;3.42;3.13;;;;;;;8.60;69.87;98963.03;4965303;28;20652;-83
2021/12/24 02:57:56;;;;;;;3.33;2.60;;;;;;;8.59;69.81;98962.19;4968062;28;21472;-84
2021/12/24 03:00:26;;;;;;;3.77;2.80;;;;;;;8.58;69.99;98946.56;4961628;28;20391;-84
2021/12/24 03:02:54;;;;;;;6.43;3.53;;;;;;;8.56;70.03;98946.69;4974630;28;20211;-83
2021/12/24 03:05:23;;;;;;;3.80;2.70;;;;;;;8.57;69.86;98950.97;4963393;28;20674;-84
2021/12/24 03:07:48;;;;;;;3.75;2.75;;;;;;;8.59;69.87;98949.09;4974227;28;20601;-83
2021/12/24 03:10:17;;;;;;;4.53;3.35;;;;;;;8.59;69.73;98949.09;4957943;28;20203;-84
2021/12/24 03:12:46;;;;;;;2.85;2.38;;;;;;;8.58;69.77;98947.41;4951554;28;20208;-84
2021/12/24 03:15:14;;;;;;;4.35;2.13;;;;;;;8.55;70.11;98929.28;4970147;28;20786;-84
2021/12/24 03:17:46;;;;;;;2.42;2.00;;;;;;;8.57;69.81;98924.78;4969876;28;20203;-84
2021/12/24 03:20:12;;;;;;;3.42;2.47;;;;;;;8.56;69.70;98930.97;4968550;28;20203;-83
2021/12/24 03:22:50;;;;;;;3.60;2.60;;;;;;;8.55;69.90;98923.22;4971804;28;20298;-84
2021/12/24 03:25:16;;;;;;;2.83;2.08;;;;;;;8.55;69.98;98926.66;4972620;28;20195;-84
2021/12/24 03:27:44;;;;;;;2.05;1.80;;;;;;;8.52;69.98;98905.09;4972227;28;20606;-83
2021/12/24 03:30:10;;;;;;;3.10;2.30;;;;;;;8.49;70.11;98890.44;4963035;28;20204;-84
2021/12/24 03:32:36;;;;;;;5.70;3.10;;;;;;;8.62;69.94;98890.47;4955637;28;20496;-84
2021/12/24 03:35:03;;;;;;;2.97;2.23;;;;;;;8.57;70.12;98903.84;4963354;28;20243;-84
2021/12/24 03:37:29;;;;;;;2.22;1.85;;;;;;;8.57;69.96;98897.78;4988697;28;20576;-84
2021/12/24 03:39:56;;;;;;;5.53;2.47;;;;;;;8.58;69.83;98905.50;4967690;28;20212;-84
2021/12/24 03:42:23;;;;;;;3.33;2.40;;;;;;;8.58;69.92;98902.91;4958095;28;20220;-85
2021/12/24 03:45:08;;;;;;;2.95;2.45;;;;;;;8.58;69.80;98910.75;4960923;28;20254;-83
2021/12/24 03:47:38;;;;;;;2.95;2.10;;;;;;;8.58;70.02;98910.75;4956318;28;20200;-83
2021/12/24 03:50:10;;;;;;;2.60;2.40;;;;;;;8.57;70.01;98908.25;4951053;28;20204;-83
2021/12/24 03:53:02;;;;;;;4.22;2.67;;;;;;;8.55;70.16;98910.97;4969507;28;20339;-84
2021/12/24 03:55:24;;;;;;;4.43;2.65;;;;;;;8.53;69.88;98907.63;4955537;28;20231;-84
2021/12/24 03:57:50;;;;;;;2.33;2.13;;;;;;;8.55;70.17;98899.66;4966543;28;20574;-83
2021/12/24 04:00:25;;;;;;;2.90;2.33;;;;;;;8.56;70.06;98899.56;4977420;28;20243;-84
2021/12/24 04:03:13;;;;;;;3.20;2.60;;;;;;;8.55;70.16;98895.25;4962972;28;20219;-83
2021/12/24 04:05:42;;;;;;;3.67;2.40;;;;;;;8.52;70.48;98895.47;4970501;28;20209;-83
2021/12/24 04:08:16;;;;;;;4.72;2.80;;;;;;;8.52;70.47;98900.69;4973728;28;20235;-83
2021/12/24 04:10:58;;;;;;;1.58;1.48;;;;;;;8.52;70.76;98895.47;4957481;28;20671;-83
2021/12/24 04:13:31;;;;;;;2.92;2.63;;;;;;;8.51;70.75;98887.72;4967528;28;20916;-83
2021/12/24 04:15:56;;;;;;;3.17;2.50;;;;;;;8.52;70.89;98894.63;4951276;28;20196;-83
2021/12/24 04:26:24;;;;;;;2.88;2.22;;;;;;;8.56;70.98;98894.34;4960586;28;20211;-84
2021/12/24 04:28:50;;;;;;;3.53;2.43;;;;;;;8.60;70.92;98893.16;4962745;28;20202;-84
2021/12/24 04:31:23;;;;;;;2.30;2.00;;;;;;;8.66;70.97;98886.69;4940949;28;20919;-83
2021/12/24 04:33:57;;;;;;;4.53;2.28;;;;;;;8.69;70.88;98886.47;4940352;28;20252;-84
2021/12/24 04:37:37;;;;;;;3.08;2.55;;;;;;;8.73;70.70;98884.50;4947032;28;20679;-83
2021/12/24 04:52:51;;;;;;;2.10;1.75;;;;;;;8.84;70.39;98872.34;4968849;28;20220;-83
2021/12/24 05:03:39;;;;;;;3.10;1.90;;;;;;;8.85;70.47;98875.81;4970317;28;20199;-84
2021/12/24 05:06:27;;;;;;;4.18;2.50;;;;;;;8.85;70.51;98875.81;4970532;28;20207;-84
2021/12/24 05:08:57;;;;;;;3.15;2.10;;;;;;;8.83;70.72;98872.44;4978849;28;20297;-83
2021/12/24 05:11:24;;;;;;;3.33;2.35;;;;;;;8.82;70.79;98871.59;4965797;28;20212;-84
2021/12/24 05:13:52;;;;;;;6.25;2.78;;;;;;;8.82;70.94;98865.53;4949610;28;20228;-84
2021/12/24 05:16:44;;;;;;;2.45;1.90;;;;;;;8.81;71.06;98874.34;4971352;28;20219;-83
2021/12/24 05:22:06;;;;;;;2.38;2.17;;;;;;;8.78;71.17;98870.16;4969517;28;20218;-84
2021/12/24 05:24:35;;;;;;;5.35;2.80;;;;;;;8.78;71.22;98870.16;4964651;28;20243;-84
2021/12/24 05:27:03;;;;;;;3.38;2.53;;;;;;;8.79;71.40;98871.00;4956356;28;20297;-84
2021/12/24 05:29:32;;;;;;;2.35;2.15;;;;;;;8.79;71.30;98871.81;4943074;28;20219;-84
2021/12/24 05:31:58;;;;;;;3.35;2.80;;;;;;;8.89;71.38;98871.22;4959001;28;20633;-83
2021/12/24 05:34:24;;;;;;;2.95;2.15;;;;;;;8.89;71.29;98864.19;4954398;28;20780;-85
2021/12/24 05:36:50;;;;;;;2.73;2.20;;;;;;;8.89;71.24;98877.28;4967987;28;20253;-83
2021/12/24 05:39:17;;;;;;;4.75;2.35;;;;;;;8.86;71.26;98886.19;4951696;28;20222;-83
2021/12/24 05:41:45;;;;;;;4.43;2.45;;;;;;;8.86;71.34;98895.81;4957231;28;20204;-84
2021/12/24 05:44:15;;;;;;;2.33;2.10;;;;;;;8.85;71.35;98896.75;4971456;28;20212;-84
2021/12/24 05:46:41;;;;;;;2.47;2.28;;;;;;;8.83;71.55;98909.97;4971273;28;20223;-83
2021/12/24 05:49:15;;;;;;;2.60;2.33;;;;;;;8.81;71.60;98901.38;4969152;28;20200;-84
2021/12/24 05:51:53;;;;;;;3.38;2.47;;;;;;;8.77;71.69;98904.28;4946474;28;20295;-84
2021/12/24 05:54:33;;;;;;;2.85;2.63;;;;;;;8.75;71.87;98900.94;4960387;28;20279;-84
2021/12/24 05:56:59;;;;;;;3.10;2.35;;;;;;;8.70;72.05;98897.81;4972305;28;21118;-83
2021/12/24 05:59:24;;;;;;;2.50;2.30;;;;;;;8.66;72.20;98901.56;4969851;28;20209;-84
2021/12/24 06:01:50;;;;;;;2.37;2.17;;;;;;;8.61;72.09;98905.34;4950984;28;20214;-84
2021/12/24 06:04:15;;;;;;;4.03;2.93;;;;;;;8.58;72.56;98900.28;4968797;28;20216;-83
2021/12/24 06:06:40;;;;;;;2.80;2.50;;;;;;;8.55;72.65;98908.34;4968690;28;20623;-84
2021/12/24 06:09:06;;;;;;;2.53;2.20;;;;;;;8.51;72.79;98909.50;4968045;28;20415;-83
2021/12/24 06:11:31;;;;;;;4.37;2.90;;;;;;;8.49;72.96;98906.13;4968727;28;20350;-83
2021/12/24 06:13:57;;;;;;;3.60;2.70;;;;;;;8.49;73.24;98903.53;4967969;28;20230;-83
2021/12/24 06:16:23;;;;;;;4.03;2.87;;;;;;;8.48;73.02;98899.25;4969257;28;20203;-83
2021/12/24 06:18:48;;;;;;;2.60;2.25;;;;;;;8.50;73.11;98907.81;4963176;28;20215;-84
2021/12/24 06:21:14;;;;;;;4.70;3.07;;;;;;;8.51;73.09;98909.50;4944011;28;20223;-84
2021/12/24 06:23:40;;;;;;;5.67;2.77;;;;;;;8.51;73.28;98909.50;4961077;28;20304;-84
2021/12/24 06:26:07;;;;;;;3.47;3.15;;;;;;;8.51;73.39;98906.88;4954690;28;20478;-84
2021/12/24 06:28:33;;;;;;;3.35;3.05;;;;;;;8.53;73.31;98915.47;4954709;28;20721;-83
2021/12/24 06:30:59;;;;;;;2.50;2.30;;;;;;;8.54;73.28;98908.47;4956032;28;20299;-85
2021/12/24 06:33:25;;;;;;;2.85;2.50;;;;;;;8.54;73.42;98903.22;4961997;28;20208;-83
2021/12/24 06:35:56;;;;;;;3.20;2.90;;;;;;;8.55;73.36;98905.72;4966670;28;20220;-85
2021/12/24 06:38:22;;;;;;;3.08;2.83;;;;;;;8.57;73.48;98897.78;4973179;28;20187;-84
2021/12/24 06:40:48;;;;;;;3.53;3.00;;;;;;;8.56;73.52;98898.72;4963967;28;20313;-83
2021/12/24 06:43:13;;;;;;;2.97;2.30;;;;;;;8.56;73.61;98891.72;4982273;28;20219;-84
2021/12/24 06:45:41;;;;;;;9.80;3.87;;;;;;;8.54;73.67;98901.44;4970094;28;20274;-83
2021/12/24 06:48:07;;;;;;;3.85;2.80;;;;;;;8.53;73.83;98901.53;4968036;28;20616;-84
2021/12/24 06:50:34;;;;;;;3.20;2.63;;;;;;;8.50;74.07;98896.50;4969670;28;20207;-82
2021/12/24 06:52:59;;;;;;;3.67;2.67;;;;;;;8.49;74.09;98898.28;4964171;28;20696;-83
2021/12/24 06:55:25;;;;;;;5.70;2.63;;;;;;;8.50;74.13;98883.41;4956735;28;20231;-84
2021/12/24 06:57:56;;;;;;;3.03;2.42;;;;;;;8.48;74.23;98883.53;4944732;28;20714;-84
2021/12/24 07:00:23;;;;;;;4.53;2.33;;;;;;;8.49;74.20;98876.53;4945469;28;20247;-83
2021/12/24 07:02:51;;;;;;;3.13;2.30;;;;;;;8.51;74.21;98872.84;4963992;28;20219;-85
2021/12/24 07:05:17;;;;;;;2.57;1.90;;;;;;;8.53;73.97;98883.22;4968133;28;20200;-84
2021/12/24 07:07:44;;;;;;;3.55;2.72;;;;;;;8.53;74.14;98886.69;4974566;28;20501;-85
2021/12/24 07:10:10;;;;;;;2.97;2.10;;;;;;;8.53;74.28;98881.47;4966229;28;20196;-84
2021/12/24 07:12:36;;;;;;;3.67;2.30;;;;;;;8.53;74.40;98891.06;4957566;28;20195;-84
2021/12/24 07:15:01;;;;;;;2.23;1.90;;;;;;;8.52;74.56;98895.47;4963892;28;20642;-85
2021/12/24 07:17:27;;;;;;;2.73;2.53;;;;;;;8.51;74.71;98893.81;4956196;28;20211;-84
2021/12/24 07:19:52;;;;;;;3.33;2.03;;;;;;;8.51;74.81;98896.41;4956951;28;20203;-84
2021/12/24 07:22:18;;;;;;;3.10;2.40;;;;;;;8.50;75.05;98894.72;4960659;28;20211;-84
2021/12/24 07:24:44;;;;;;;5.33;2.40;;;;;;;8.48;75.34;98899.25;4963288;28;20195;-84
2021/12/24 07:27:10;;;;;;;3.00;2.22;;;;;;;8.46;75.64;98897.66;4963930;28;20466;-84
2021/12/24 07:29:36;;;;;;;4.20;2.47;;;;;;;8.43;75.82;98896.09;4963018;28;20219;-83
2021/12/24 07:32:03;;;;;;;3.63;3.10;;;;;;;8.50;76.06;98905.19;4965159;28;20592;-84
2021/12/24 07:34:29;;;;;;;2.95;2.58;;;;;;;8.45;76.49;98904.66;4964331;28;20232;-83
2021/12/24 07:36:54;;;;;;;2.70;2.50;;;;;;;8.39;76.98;98913.75;4967152;28;20219;-84
2021/12/24 07:39:20;;;;;;;4.80;3.37;;;;;;;8.36;77.05;98918.31;4956953;28;20242;-83
2021/12/24 07:41:47;;;;;;;2.80;2.50;;;;;;;8.31;77.18;98921.22;4967659;28;20223;-83
2021/12/24 07:44:17;;;;;;;4.28;2.60;;;;;;;8.26;77.77;98919.84;4961469;28;20208;-84
2021/12/24 07:46:49;;;;;;;3.50;2.58;;;;;;;8.20;78.01;98914.06;4968345;28;20291;-83
2021/12/24 07:54:30;;;;;;;3.75;2.70;;;;;;;8.07;79.36;98904.50;4972893;28;20847;-82
2021/12/24 07:56:56;;;;;;;3.35;2.90;;;;;;;8.04;79.48;98916.00;4969204;28;20207;-83
2021/12/24 07:59:22;;;;;;;3.10;2.80;;;;;;;8.02;80.05;98906.59;4964718;28;20239;-83
2021/12/24 08:01:48;;;;;;;4.63;3.40;;;;;;;8.08;80.73;98914.06;4919622;28;20539;-83
2021/12/24 08:04:14;;;;;;;3.17;2.80;;;;;;;8.03;81.08;98914.34;4923710;29;20763;-83
2021/12/24 08:06:40;;;;;;;3.20;2.90;;;;;;;7.98;81.28;98911.19;4929577;29;20493;-83
2021/12/24 08:09:07;;;;;;;4.07;2.45;;;;;;;7.95;81.55;98914.00;4928031;29;20295;-83
2021/12/24 08:11:36;;;;;;;4.78;3.08;;;;;;;7.92;81.47;98920.25;4926092;29;20683;-84
2021/12/24 08:14:02;;;;;;;2.95;2.30;;;;;;;7.90;81.91;98927.34;4929783;29;20844;-83
2021/12/24 08:16:29;;;;;;;3.15;2.85;;;;;;;7.90;82.27;98926.53;4928914;29;20276;-83
2021/12/24 08:18:56;;;;;;;3.15;2.80;;;;;;;7.87;82.36;98917.09;4931072;29;20213;-82
2021/12/24 08:21:22;;;;;;;4.25;2.60;;;;;;;7.88;82.48;98915.31;4931736;29;20621;-83
2021/12/24 08:23:48;;;;;;;9.40;2.95;;;;;;;7.87;82.49;98911.03;4924371;29;20206;-84
2021/12/24 08:26:15;;;;;;;3.50;2.65;;;;;;;7.88;82.56;98910.09;4928609;29;20219;-84
2021/12/24 08:28:40;;;;;;;8.40;2.88;;;;;;;7.88;82.96;98910.09;4909267;29;20223;-83
2021/12/24 08:31:06;;;;;;;3.50;2.60;;;;;;;7.88;83.17;98910.91;4927579;29;20496;-84
2021/12/24 08:33:34;;;;;;;3.10;2.80;;;;;;;7.88;83.28;98915.31;4927114;29;20777;-85
2021/12/24 08:36:00;;;;;;;5.55;3.30;;;;;;;7.86;83.62;98909.38;4926626;29;20304;-84
2021/12/24 08:38:25;;;;;;;3.15;2.38;;;;;;;7.83;83.73;98910.41;4927288;29;20205;-84
2021/12/24 08:40:51;;;;;;;3.63;2.57;;;;;;;7.83;83.97;98906.91;4924812;29;20208;-83
2021/12/24 08:43:16;;;;;;;3.67;2.77;;;;;;;7.81;84.45;98904.44;4929674;29;20208;-83
2021/12/24 08:45:42;;;;;;;3.80;3.03;;;;;;;7.79;84.38;98895.81;4926000;29;20238;-85
2021/12/24 08:48:08;;;;;;;9.00;5.53;;;;;;;7.81;84.75;98893.13;4925740;29;20648;-84
2021/12/24 08:50:33;;;;;;;4.73;3.60;;;;;;;7.79;84.88;98893.22;4928041;29;20233;-83
2021/12/24 08:52:59;;;;;;;4.00;3.33;;;;;;;7.80;85.31;98899.28;4921231;29;20852;-84
2021/12/24 08:55:24;;;;;;;4.60;3.10;;;;;;;7.79;85.50;98902.84;4922030;29;20304;-84
2021/12/24 08:57:50;;;;;;;4.60;3.63;;;;;;;7.78;85.45;98896.78;4930631;29;20237;-84
2021/12/24 09:00:17;;;;;;;3.93;2.50;;;;;;;7.79;85.88;98895.81;4927373;29;20335;-83
2021/12/24 09:02:43;;;;;;;3.22;2.90;;;;;;;7.79;85.77;98892.38;4931819;29;20229;-83
2021/12/24 09:05:10;;;;;;;3.20;2.45;;;;;;;7.80;85.97;98897.50;4930284;29;20210;-83
2021/12/24 09:07:35;;;;;;;4.70;2.95;;;;;;;7.81;86.12;98890.53;4924120;29;20232;-84
2021/12/24 09:10:02;;;;;;;2.70;2.10;;;;;;;7.81;86.28;98898.34;4930610;29;20636;-85
2021/12/24 09:12:28;;;;;;;3.53;2.67;;;;;;;7.82;86.37;98900.84;4925968;29;20201;-83
2021/12/24 09:14:53;;;;;;;5.90;3.23;;;;;;;7.83;86.27;98901.69;4932070;29;20679;-82
2021/12/24 09:17:21;;;;;;;3.43;2.70;;;;;;;7.86;86.38;98893.69;4946820;28;20218;-83
2021/12/24 09:19:49;;;;;;;1.92;1.80;;;;;;;7.86;86.30;98896.28;4920290;29;20307;-83
2021/12/24 09:22:17;;;;;;;3.83;2.50;;;;;;;7.88;86.38;98890.00;4921447;29;20209;-82
2021/12/24 09:24:50;;;;;;;4.20;3.80;;;;;;;7.90;86.39;98882.91;4924385;29;20227;-83
2021/12/24 09:27:15;;;;;;;4.20;3.60;;;;;;;7.91;86.31;98878.50;4927095;29;20232;-83
2021/12/24 09:29:42;;;;;;;4.07;2.70;;;;;;;7.91;86.55;98879.38;4941833;29;20215;-84
2021/12/24 09:32:08;;;;;;;3.95;3.15;;;;;;;7.93;86.63;98880.09;4928274;29;20694;-84
2021/12/24 09:34:34;;;;;;;3.60;2.50;;;;;;;7.94;86.64;98875.72;4928994;29;20217;-83
2021/12/24 09:36:59;;;;;;;3.60;3.30;;;;;;;7.95;86.76;98872.16;4934639;29;20358;-83
2021/12/24 09:39:25;;;;;;;4.40;3.10;;;;;;;7.97;86.44;98867.69;4921883;29;20217;-83
2021/12/24 09:41:51;;;;;;;5.13;2.90;;;;;;;8.00;86.50;98874.47;4934051;29;20193;-83
2021/12/24 09:44:16;;;;;;;3.20;2.77;;;;;;;8.00;86.59;98859.63;4932182;29;20233;-84
2021/12/24 09:46:43;;;;;;;5.23;3.90;;;;;;;8.01;86.62;98856.06;4939446;29;20205;-83
2021/12/24 09:49:13;;;;;;;4.50;3.30;;;;;;;8.03;86.77;98854.19;4928666;29;20217;-84
2021/12/24 09:51:41;;;;;;;4.97;2.70;;;;;;;8.05;86.63;98854.94;4936942;29;20209;-83
2021/12/24 09:54:15;;;;;;;2.83;2.30;;;;;;;8.06;86.51;98856.59;4922930;29;20390;-83
2021/12/24 09:56:41;;;;;;;3.80;2.72;;;;;;;8.07;86.51;98860.88;4924795;29;20252;-84
2021/12/24 09:59:07;;;;;;;2.80;2.55;;;;;;;8.09;86.33;98866.03;4929692;29;20243;-84
2021/12/24 10:01:43;;;;;;;3.50;3.20;;;;;;;8.10;86.49;98858.09;4940136;29;20276;-83
2021/12/24 10:04:11;;;;;;;4.47;2.83;;;;;;;8.11;86.57;98849.28;4927182;29;21163;-83
2021/12/24 10:06:39;;;;;;;2.78;2.42;;;;;;;8.12;86.39;98856.19;4910491;29;20260;-83
2021/12/24 10:09:18;;;;;;;2.75;2.35;;;;;;;8.14;86.26;98856.09;4929999;29;20552;-84
2021/12/24 10:11:50;;;;;;;4.93;3.15;;;;;;;8.15;86.44;98847.31;4921469;29;20208;-83
2021/12/24 10:14:21;;;;;;;3.28;2.53;;;;;;;8.15;86.60;98840.28;4929227;29;20288;-84
2021/12/24 10:16:49;;;;;;;4.32;3.00;;;;;;;8.14;86.48;98822.09;4927180;29;20214;-84
2021/12/24 10:19:15;;;;;;;3.97;2.90;;;;;;;8.14;86.79;98811.63;4931782;29;20229;-84
2021/12/24 10:21:44;;;;;;;4.00;3.00;;;;;;;8.15;86.65;98810.69;4925077;29;20372;-85
2021/12/24 10:24:14;;;;;;;3.53;3.00;;;;;;;8.15;86.52;98813.31;4922082;29;20475;-84
2021/12/24 10:26:59;;;;;;;4.72;2.88;;;;;;;8.15;86.63;98814.13;4924694;29;20205;-84
2021/12/24 10:29:34;;;;;;;5.65;2.88;;;;;;;8.15;86.88;98805.44;4924136;29;20212;-84
2021/12/24 10:32:10;;;;;;;3.15;2.72;;;;;;;8.16;86.87;98807.97;4921803;29;20204;-85
2021/12/24 10:34:36;;;;;;;3.03;2.33;;;;;;;8.18;86.64;98795.66;4920750;29;20221;-84
2021/12/24 10:37:15;;;;;;;5.22;3.25;;;;;;;8.19;86.59;98784.22;4922542;29;20214;-83
2021/12/24 10:39:42;;;;;;;3.63;2.85;;;;;;;8.18;86.55;98786.94;4922247;29;20272;-84
2021/12/24 10:42:12;;;;;;;7.70;2.75;;;;;;;8.19;86.69;98778.16;4922685;29;20264;-83
2021/12/24 10:44:39;;;;;;;3.83;3.40;;;;;;;8.19;86.68;98775.56;4922988;29;20198;-82
2021/12/24 10:47:12;;;;;;;2.95;2.70;;;;;;;8.18;86.73;98769.50;4929017;29;20276;-83
2021/12/24 10:49:57;;;;;;;3.78;3.10;;;;;;;8.18;86.95;98766.00;4928706;29;20202;-84
2021/12/24 10:55:00;;;;;;;4.85;3.38;;;;;;;8.18;86.75;98766.88;4938877;29;20221;-83
2021/12/24 10:57:29;;;;;;;3.50;3.05;;;;;;;8.20;86.77;98762.34;4924915;29;20631;-84
2021/12/24 10:59:57;;;;;;;5.13;3.20;;;;;;;8.25;86.74;98776.91;4917875;29;20962;-84
2021/12/24 11:02:31;;;;;;;2.50;2.30;;;;;;;8.26;86.72;98773.34;4924175;29;20206;-83
2021/12/24 11:05:43;;;;;;;4.03;3.63;;;;;;;8.28;86.70;98766.25;4922108;29;20257;-84
2021/12/24 11:08:11;;;;;;;3.47;3.10;;;;;;;8.30;86.49;98764.38;4926795;29;20233;-84
2021/12/24 11:10:43;;;;;;;2.55;2.22;;;;;;;8.32;86.52;98759.88;4930053;29;20653;-84
2021/12/24 11:13:14;;;;;;;3.63;3.15;;;;;;;8.33;86.54;98759.75;4917474;29;20214;-83
2021/12/24 11:15:51;;;;;;;2.40;2.20;;;;;;;8.34;86.50;98745.72;4919338;29;20735;-83
2021/12/24 11:18:24;;;;;;;4.28;3.00;;;;;;;8.36;86.33;98743.00;4926053;29;20264;-84
2021/12/24 11:21:05;;;;;;;3.70;2.70;;;;;;;8.37;86.26;98740.28;4928230;29;20498;-83
2021/12/24 11:23:33;;;;;;;3.78;2.75;;;;;;;8.37;86.27;98742.91;4925218;29;20283;-84
2021/12/24 11:26:03;;;;;;;3.63;3.20;;;;;;;8.40;86.16;98749.75;4929292;29;20193;-85
2021/12/24 11:28:30;;;;;;;3.35;2.88;;;;;;;8.39;86.04;98746.28;4925786;29;20272;-84
2021/12/24 11:31:09;;;;;;;3.92;2.83;;;;;;;8.43;86.23;98748.69;4933303;29;20491;-84
2021/12/24 11:33:38;;;;;;;3.28;2.80;;;;;;;8.44;86.29;98756.44;4922512;29;20228;-83
2021/12/24 11:36:06;;;;;;;3.58;2.03;;;;;;;8.46;86.01;98753.72;4930118;29;20237;-84
2021/12/24 11:38:35;;;;;;;3.70;2.85;;;;;;;8.46;85.91;98751.94;4932285;29;20296;-84
2021/12/24 11:41:03;;;;;;;2.63;2.42;;;;;;;8.47;85.87;98750.97;4925251;29;20205;-84
2021/12/24 11:43:31;;;;;;;5.18;2.92;;;;;;;8.48;85.74;98751.81;4923577;29;20213;-84
2021/12/24 11:45:58;;;;;;;2.97;2.63;;;;;;;8.51;85.62;98752.47;4927559;29;20201;-84
2021/12/24 11:48:27;;;;;;;3.53;2.70;;;;;;;8.52;85.47;98748.88;4918572;29;20710;-84
2021/12/24 11:50:53;;;;;;;3.45;3.05;;;;;;;8.56;85.11;98742.50;4916119;29;20256;-83
2021/12/24 11:53:19;;;;;;;3.47;3.05;;;;;;;8.60;85.07;98735.28;4921464;29;20214;-84
2021/12/24 11:55:50;;;;;;;5.20;4.80;;;;;;;8.61;84.92;98743.03;4925058;29;20277;-84
2021/12/24 11:58:23;;;;;;;2.80;2.03;;;;;;;8.63;84.81;98750.78;4921771;29;20209;-84
2021/12/24 12:00:55;;;;;;;3.28;2.80;;;;;;;8.66;84.71;98740.06;4923172;29;20225;-84
2021/12/24 12:03:52;;;;;;;2.33;2.05;;;;;;;8.68;84.79;98738.19;4924299;29;20720;-84
2021/12/24 12:06:17;;;;;;;3.95;2.50;;;;;;;8.69;84.80;98744.25;4925630;29;20209;-84
2021/12/24 12:08:47;;;;;;;3.90;2.87;;;;;;;8.69;84.73;98744.25;4927007;29;20247;-85
2021/12/24 12:11:20;;;;;;;2.60;2.30;;;;;;;8.69;84.88;98737.25;4921295;29;20198;-85
2021/12/24 12:13:55;;;;;;;2.85;2.58;;;;;;;8.71;84.64;98739.75;4926192;29;20213;-84
2021/12/24 12:16:26;;;;;;;3.47;2.30;;;;;;;8.69;84.72;98726.78;4926562;29;20327;-84
2021/12/24 12:19:15;;;;;;;3.28;2.97;;;;;;;8.71;84.73;98734.53;4921911;29;20794;-84
2021/12/24 12:22:13;;;;;;;3.22;2.60;;;;;;;8.70;84.60;98738.09;4930979;29;20689;-84
2021/12/24 12:27:29;;;;;;;5.65;3.38;;;;;;;8.71;84.57;98721.44;4921460;29;20323;-85
2021/12/24 12:29:54;;;;;;;6.22;4.72;;;;;;;8.72;84.51;98723.09;4924935;29;20201;-84
2021/12/24 12:32:24;;;;;;;3.77;2.87;;;;;;;8.84;84.39;98711.78;4923350;29;20979;-85
2021/12/24 12:34:57;;;;;;;4.60;2.58;;;;;;;8.81;84.49;98707.59;4921495;29;20691;-84
2021/12/24 12:37:39;;;;;;;6.28;2.90;;;;;;;8.80;84.32;98699.84;4926545;29;20267;-85
2021/12/24 12:40:17;;;;;;;3.25;2.83;;;;;;;8.80;84.36;98697.22;4916514;29;20209;-84
2021/12/24 12:42:50;;;;;;;4.93;3.10;;;;;;;8.79;84.53;98691.16;4929776;29;20219;-84
2021/12/24 12:45:17;;;;;;;4.80;3.58;;;;;;;8.79;84.54;98690.31;4930549;29;20714;-83
2021/12/24 12:48:02;;;;;;;4.60;3.33;;;;;;;8.78;84.75;98678.19;4913269;29;20577;-85
2021/12/24 12:50:28;;;;;;;4.30;3.47;;;;;;;8.77;84.72;98679.09;4925398;29;20208;-85
2021/12/24 12:53:23;;;;;;;6.75;3.40;;;;;;;8.77;85.06;98682.56;4927815;29;20237;-85
2021/12/24 12:56:08;;;;;;;4.03;3.72;;;;;;;8.78;85.06;98680.81;4929995;29;20220;-84
2021/12/24 12:58:34;;;;;;;3.97;3.63;;;;;;;8.78;85.17;98675.56;4924563;29;20679;-84
2021/12/24 13:01:18;;;;;;;3.15;2.85;;;;;;;8.82;85.25;98677.84;4927270;29;20501;-83
2021/12/24 13:03:55;;;;;;;2.90;1.95;;;;;;;8.85;85.38;98671.53;4929299;29;20603;-84
2021/12/24 13:06:22;;;;;;;3.10;2.72;;;;;;;8.85;85.22;98668.91;4928394;29;20574;-84
2021/12/24 13:08:48;;;;;;;2.58;2.22;;;;;;;8.88;85.22;98654.78;4925034;29;20253;-84
2021/12/24 13:11:16;;;;;;;4.63;3.05;;;;;;;8.90;85.21;98661.56;4928714;29;20215;-84
2021/12/24 13:13:55;;;;;;;4.28;3.10;;;;;;;8.92;85.21;98654.44;4929227;29;20336;-84
2021/12/24 13:16:43;;;;;;;4.80;3.40;;;;;;;8.93;85.33;98652.66;4928074;29;20201;-84
2021/12/24 13:19:28;;;;;;;3.33;3.00;;;;;;;8.93;85.32;98648.25;4946335;29;20201;-85
2021/12/24 13:25:06;;;;;;;5.00;2.20;;;;;;;8.94;85.35;98644.72;4928579;29;20682;-84
2021/12/24 13:27:41;;;;;;;3.60;3.25;;;;;;;8.95;85.34;98642.91;4920653;29;20252;-85
2021/12/24 13:30:21;;;;;;;3.30;2.58;;;;;;;8.96;85.56;98642.78;4932574;29;20292;-84
2021/12/24 13:32:49;;;;;;;3.10;2.42;;;;;;;8.97;85.26;98638.41;4925977;29;20209;-85
2021/12/24 13:35:17;;;;;;;3.28;2.55;;;;;;;8.97;85.28;98638.41;4926280;29;20233;-84